Aviation Digital Data Service (ADDS)

Output produced by METARs form (1129 UTC 28 September 2021)
found at http://www.aviationweather.gov/metar/data/
 
VTUD 281100Z 00000KT 9999 FEW020 29/24 Q1007 NOSIG
VTUD 281000Z 30003KT 270V330 9999 FEW030 32/23 Q1007 NOSIG
VTUD 280900Z VRB02KT 9999 FEW030 31/24 Q1007 NOSIG
VTUD 280800Z 08003KT 020V140 9999 SCT030 33/23 Q1008 NOSIG
VTUD 280700Z VRB03KT 9999 SCT030 34/24 Q1008 NOSIG
VTUD 280600Z VRB04KT 9999 BKN030 32/23 Q1010 NOSIG
VTUD 280500Z 01004KT 310V060 9999 BKN030 31/23 Q1011 NOSIG
VTUD 280400Z 02004KT 310V070 9999 SCT025 32/24 Q1012 NOSIG
VTUD 280300Z VRB04KT 9999 SCT020 31/24 Q1012 NOSIG
VTUD 280200Z 08005KT 040V150 9999 SCT020 31/23 Q1012 NOSIG
VTUD 280100Z VRB02KT 9999 FEW020 27/24 Q1012 NOSIG
VTUD 280000Z 05003KT 010V080 9999 FEW020 26/24 Q1011 NOSIG
VTUD 272300Z 00000KT 9000 FEW020 25/24 Q1010 NOSIG
TAF VTUD 280500Z 2806/2906 07005KT 9999 FEW025 SCT100 
     TEMPO 2807/2814 VRB15KT 4000 TSRA FEW015CB BKN020 BKN080 
     BECMG 2815/2817 30005KT